createdAt,value
2017-10-18T00:01:40.666Z,33.00
2017-10-18T00:04:13.604Z,27.93
2017-10-18T00:06:40.554Z,32.47
2017-10-18T00:09:07.779Z,37.77
2017-10-18T00:11:34.950Z,31.83
2017-10-18T00:14:02.382Z,31.80
2017-10-18T00:16:34.713Z,28.73
2017-10-18T00:19:01.766Z,28.20
2017-10-18T00:21:28.625Z,31.03
2017-10-18T00:23:56.621Z,37.80
2017-10-18T00:26:24.648Z,34.77
2017-10-18T00:28:51.567Z,32.13
2017-10-18T00:31:19.260Z,32.60
2017-10-18T00:33:46.529Z,33.43
2017-10-18T00:36:15.226Z,29.00
2017-10-18T00:38:42.275Z,28.30
2017-10-18T00:41:09.579Z,28.50
2017-10-18T00:43:39.118Z,28.53
2017-10-18T00:46:11.326Z,27.53
2017-10-18T00:48:43.736Z,34.43
2017-10-18T00:51:10.789Z,34.30
2017-10-18T00:53:44.883Z,33.07
2017-10-18T00:56:12.158Z,33.23
2017-10-18T00:58:42.221Z,27.73
2017-10-18T01:01:09.307Z,31.80
2017-10-18T01:03:41.896Z,29.63
2017-10-18T01:06:08.836Z,27.83
2017-10-18T01:08:37.340Z,29.30
2017-10-18T01:11:04.297Z,29.80
2017-10-18T01:13:31.298Z,29.10
2017-10-18T01:16:03.633Z,29.67
2017-10-18T01:18:30.935Z,30.87
2017-10-18T01:20:57.896Z,28.00
2017-10-18T01:23:24.976Z,29.97
2017-10-18T01:25:52.070Z,29.20
2017-10-18T01:28:19.443Z,32.77
2017-10-18T01:30:46.404Z,26.40
2017-10-18T01:33:19.165Z,28.33
2017-10-18T01:35:46.101Z,30.03
2017-10-18T01:38:13.081Z,30.13
2017-10-18T01:40:40.143Z,30.67
2017-10-18T01:43:07.878Z,36.80
2017-10-18T01:45:43.734Z,30.93
2017-10-18T01:48:14.967Z,27.80
2017-10-18T01:50:43.144Z,26.97
2017-10-18T01:53:11.232Z,30.20
2017-10-18T01:55:38.056Z,26.90
2017-10-18T01:58:05.689Z,30.60
2017-10-18T02:00:33.034Z,32.43
2017-10-18T02:03:03.707Z,29.70
2017-10-18T02:05:36.504Z,34.23
2017-10-18T02:08:04.578Z,32.70
2017-10-18T02:10:31.618Z,28.17
2017-10-18T02:12:59.296Z,32.33
2017-10-18T02:15:26.530Z,27.90
2017-10-18T02:17:53.562Z,27.63
2017-10-18T02:20:25.750Z,37.73
2017-10-18T02:22:57.901Z,26.30
2017-10-18T02:25:30.852Z,30.27
2017-10-18T02:27:58.182Z,32.83
2017-10-18T02:30:25.188Z,29.83
2017-10-18T02:32:57.601Z,37.53
2017-10-18T02:35:29.917Z,28.30
2017-10-18T02:38:02.790Z,36.07
2017-10-18T02:40:29.781Z,31.57
2017-10-18T02:42:56.662Z,31.73
2017-10-18T02:45:23.846Z,36.20
2017-10-18T02:47:52.476Z,38.50
2017-10-18T02:50:20.176Z,33.20
2017-10-18T02:52:56.103Z,39.17
2017-10-18T02:55:23.116Z,37.63
2017-10-18T02:57:50.689Z,38.63
2017-10-18T03:00:22.919Z,39.47
2017-10-18T03:02:49.792Z,39.83
2017-10-18T03:05:16.794Z,40.40
2017-10-18T03:07:46.848Z,39.20
2017-10-18T03:10:13.799Z,37.13
2017-10-18T03:12:40.918Z,34.20
2017-10-18T03:15:08.069Z,38.47
2017-10-18T03:17:35.063Z,36.87
2017-10-18T03:20:01.980Z,36.90
2017-10-18T03:22:28.967Z,37.73
2017-10-18T03:24:57.185Z,30.03
2017-10-18T03:27:24.452Z,31.97
2017-10-18T03:29:57.377Z,30.87
2017-10-18T03:32:29.939Z,32.40
2017-10-18T03:35:02.874Z,45.00
2017-10-18T03:37:30.777Z,33.80
2017-10-18T03:39:59.900Z,33.93
2017-10-18T03:42:32.241Z,32.43
2017-10-18T03:45:00.957Z,32.67
2017-10-18T03:47:30.178Z,27.53
2017-10-18T03:49:57.036Z,27.50
2017-10-18T03:52:30.163Z,28.23
2017-10-18T03:55:02.919Z,32.63
2017-10-18T03:57:30.022Z,32.20
2017-10-18T03:59:57.000Z,35.00
2017-10-18T04:02:24.126Z,28.57
2017-10-18T04:04:51.275Z,36.20
2017-10-18T04:07:18.268Z,32.73
2017-10-18T04:09:51.816Z,34.47
2017-10-18T04:12:19.148Z,34.67
2017-10-18T04:14:46.093Z,31.03
2017-10-18T04:17:16.560Z,30.63
2017-10-18T04:19:49.559Z,35.87
2017-10-18T04:22:21.608Z,43.30
2017-10-18T04:24:49.044Z,38.33
2017-10-18T04:27:16.186Z,34.93
2017-10-18T04:29:45.859Z,35.03
2017-10-18T04:32:18.609Z,37.97
2017-10-18T04:34:46.608Z,38.23
2017-10-18T04:37:14.588Z,34.30
2017-10-18T04:39:42.548Z,33.63
2017-10-18T04:42:09.804Z,33.03
2017-10-18T04:44:36.880Z,34.30
2017-10-18T04:47:04.892Z,33.07
2017-10-18T04:49:33.081Z,32.23
2017-10-18T04:52:01.299Z,38.20
2017-10-18T04:54:29.265Z,32.97
2017-10-18T04:57:02.145Z,36.87
2017-10-18T04:59:29.369Z,49.20
2017-10-18T05:02:01.525Z,40.13
2017-10-18T05:04:29.260Z,35.53
2017-10-18T05:06:56.378Z,33.00
2017-10-18T05:09:24.316Z,41.73
2017-10-18T05:11:51.271Z,43.67
2017-10-18T05:14:25.233Z,44.47
2017-10-18T05:16:53.074Z,40.47
2017-10-18T05:19:20.349Z,43.73
2017-10-18T05:21:54.829Z,41.83
2017-10-18T05:24:25.880Z,50.03
2017-10-18T05:26:53.800Z,48.70
2017-10-18T05:29:20.717Z,44.67
2017-10-18T05:31:48.942Z,44.10
2017-10-18T05:34:21.171Z,44.53
2017-10-18T05:36:48.115Z,45.77
2017-10-18T05:39:16.469Z,44.83
2017-10-18T05:41:43.578Z,50.03
2017-10-18T05:44:10.963Z,44.07
2017-10-18T05:46:38.797Z,48.73
2017-10-18T05:49:06.204Z,46.47
2017-10-18T05:51:33.495Z,46.50
2017-10-18T05:54:05.759Z,46.50
2017-10-18T05:56:38.202Z,48.10
2017-10-18T05:59:10.367Z,47.10
2017-10-18T06:01:42.716Z,43.23
2017-10-18T06:04:16.665Z,44.37
2017-10-18T06:06:43.966Z,44.03
2017-10-18T06:09:15.965Z,45.10
2017-10-18T06:11:49.052Z,41.10
2017-10-18T06:14:20.806Z,46.20
2017-10-18T06:16:47.886Z,45.80
2017-10-18T06:19:14.951Z,50.07
2017-10-18T06:21:42.610Z,50.30
2017-10-18T06:24:09.583Z,44.50
2017-10-18T06:26:36.558Z,77.97
2017-10-18T06:29:03.535Z,53.87
2017-10-18T06:31:32.771Z,60.37
2017-10-18T06:34:01.419Z,54.83
2017-10-18T06:36:31.579Z,47.70
2017-10-18T06:39:04.534Z,64.47
2017-10-18T06:41:37.026Z,55.47
2017-10-18T06:44:04.050Z,56.33
2017-10-18T06:46:30.898Z,60.13
2017-10-18T06:48:58.492Z,54.50
2017-10-18T06:51:25.450Z,54.37
2017-10-18T06:53:52.271Z,47.97
2017-10-18T06:56:19.437Z,52.30
2017-10-18T06:58:51.933Z,56.57
2017-10-18T07:01:19.764Z,51.03
2017-10-18T07:03:47.224Z,51.90
2017-10-18T07:06:14.153Z,53.57
2017-10-18T07:08:46.032Z,56.80
2017-10-18T07:11:13.786Z,57.53
2017-10-18T07:13:45.800Z,60.20
2017-10-18T07:16:12.610Z,64.37
2017-10-18T07:18:40.255Z,60.17
2017-10-18T07:21:08.411Z,51.03
2017-10-18T07:23:35.303Z,50.33
2017-10-18T07:26:03.174Z,55.73
2017-10-18T07:28:35.366Z,52.27
2017-10-18T07:31:03.085Z,50.83
2017-10-18T07:33:31.759Z,48.70
2017-10-18T07:35:58.642Z,51.67
2017-10-18T07:38:25.562Z,56.50
2017-10-18T07:40:53.437Z,50.87
2017-10-18T07:43:21.143Z,52.00
2017-10-18T07:45:49.254Z,52.07
2017-10-18T07:48:16.147Z,48.30
2017-10-18T07:50:48.127Z,50.20
2017-10-18T07:53:14.962Z,46.33
2017-10-18T07:55:41.814Z,50.13
2017-10-18T07:58:08.664Z,50.63
2017-10-18T08:00:35.529Z,48.93
2017-10-18T08:03:02.491Z,52.47
2017-10-18T08:05:29.296Z,51.30
2017-10-18T08:07:56.131Z,54.07
2017-10-18T08:10:22.986Z,53.70
2017-10-18T08:12:49.804Z,69.07
2017-10-18T08:15:16.640Z,50.60
2017-10-18T08:17:43.489Z,51.00
2017-10-18T08:20:11.084Z,69.07
2017-10-18T08:22:37.967Z,107.47
2017-10-18T08:25:04.876Z,125.63
2017-10-18T08:27:31.723Z,79.37
2017-10-18T08:29:58.548Z,64.77
2017-10-18T08:32:25.488Z,68.37
2017-10-18T08:34:52.283Z,91.00
2017-10-18T08:37:19.212Z,60.40
2017-10-18T08:39:46.057Z,64.17
2017-10-18T08:42:13.646Z,60.47
2017-10-18T08:44:41.303Z,63.50
2017-10-18T08:47:08.893Z,53.57
2017-10-18T08:49:36.513Z,57.00
2017-10-18T08:52:03.343Z,55.23
2017-10-18T08:54:30.186Z,54.93
2017-10-18T08:56:57.006Z,51.50
2017-10-18T09:33:24.640Z,26.97
2017-10-18T09:35:51.465Z,25.30
2017-10-18T09:38:18.284Z,23.77
2017-10-18T09:40:45.099Z,22.13
2017-10-18T09:43:12.680Z,25.20
2017-10-18T09:45:40.278Z,24.70
2017-10-18T09:48:07.824Z,25.40
2017-10-18T09:50:34.646Z,21.77
2017-10-18T09:53:02.201Z,22.17
2017-10-18T09:55:29.055Z,24.80
2017-10-18T09:57:55.864Z,20.73
2017-10-18T10:00:22.696Z,22.07
2017-10-18T10:02:49.510Z,21.60
2017-10-18T10:05:16.383Z,22.17
2017-10-18T10:07:43.993Z,20.77
2017-10-18T10:10:10.800Z,21.33
2017-10-18T10:12:37.631Z,20.10
2017-10-18T10:15:04.410Z,19.47
2017-10-18T10:17:31.227Z,19.83
2017-10-18T10:19:58.207Z,24.53
2017-10-18T10:22:25.049Z,18.93
2017-10-18T10:24:51.913Z,21.53
2017-10-18T10:27:18.754Z,20.13
2017-10-18T10:29:46.359Z,19.90
2017-10-18T10:32:13.193Z,21.07
2017-10-18T10:34:40.822Z,19.13
2017-10-18T10:37:07.623Z,18.60
2017-10-18T10:39:35.249Z,18.47
2017-10-18T10:42:02.328Z,18.70
2017-10-18T10:44:29.189Z,18.20
2017-10-18T10:46:55.974Z,17.70
2017-10-18T10:49:22.828Z,18.27
2017-10-18T10:51:49.805Z,15.33
2017-10-18T10:54:16.637Z,16.73
2017-10-18T10:56:43.466Z,14.03
2017-10-18T10:59:10.289Z,14.60
2017-10-18T11:01:37.145Z,16.33
2017-10-18T11:04:03.990Z,15.13
2017-10-18T11:06:30.992Z,16.57
2017-10-18T11:08:58.577Z,15.67
2017-10-18T11:11:26.151Z,15.07
2017-10-18T11:13:53.731Z,15.20
2017-10-18T11:16:22.338Z,14.13
2017-10-18T11:18:49.232Z,16.90
2017-10-18T11:21:16.834Z,16.60
2017-10-18T11:23:43.650Z,16.10
2017-10-18T11:26:10.447Z,15.17
2017-10-18T11:28:37.282Z,16.33
2017-10-18T11:31:04.122Z,17.70
2017-10-18T11:33:30.957Z,15.77
2017-10-18T11:35:57.789Z,16.93
2017-10-18T11:38:24.655Z,15.63
2017-10-18T11:40:51.492Z,16.77
2017-10-18T11:43:18.313Z,18.00
2017-10-18T11:45:45.459Z,16.73
2017-10-18T11:48:12.280Z,16.60
2017-10-18T11:50:39.141Z,15.30
2017-10-18T11:53:05.948Z,13.93
2017-10-18T11:55:32.780Z,13.40
2017-10-18T11:57:59.617Z,14.63
2017-10-18T12:00:26.453Z,12.97
2017-10-18T12:02:54.012Z,12.37
2017-10-18T12:05:21.549Z,12.90
2017-10-18T12:07:48.405Z,12.27
2017-10-18T12:10:15.264Z,12.17
2017-10-18T12:12:42.082Z,11.90
2017-10-18T12:15:09.655Z,11.50
2017-10-18T12:17:37.203Z,11.13
2017-10-18T12:20:04.067Z,11.47
2017-10-18T12:22:30.907Z,15.67
2017-10-18T12:24:57.735Z,12.10
2017-10-18T12:27:24.608Z,11.67
2017-10-18T12:29:51.458Z,11.33
2017-10-18T12:32:18.325Z,12.43
2017-10-18T12:34:45.135Z,11.13
2017-10-18T12:37:11.987Z,13.03
2017-10-18T12:39:38.825Z,11.37
2017-10-18T12:42:06.394Z,12.10
2017-10-18T12:44:33.219Z,10.83
2017-10-18T12:47:00.792Z,11.47
2017-10-18T12:49:27.619Z,10.10
2017-10-18T12:51:54.491Z,19.90
2017-10-18T12:54:21.401Z,11.37
2017-10-18T12:56:48.278Z,12.27
2017-10-18T12:59:15.091Z,11.27
2017-10-18T13:01:41.955Z,10.93
2017-10-18T13:04:08.791Z,9.30
2017-10-18T13:06:35.652Z,8.87
2017-10-18T13:09:02.641Z,11.40
2017-10-18T13:11:29.492Z,10.77
2017-10-18T13:13:56.347Z,14.10
2017-10-18T13:16:23.217Z,11.37
2017-10-18T13:18:50.062Z,9.23
2017-10-18T13:21:16.904Z,9.67
2017-10-18T13:23:43.719Z,9.23
2017-10-18T13:26:11.265Z,11.20
2017-10-18T13:28:38.114Z,10.23
2017-10-18T13:31:04.992Z,10.77
2017-10-18T13:33:31.872Z,11.30
2017-10-18T13:35:58.694Z,9.93
2017-10-18T13:38:25.547Z,12.40
2017-10-18T13:40:52.423Z,10.17
2017-10-18T13:43:19.299Z,11.10
2017-10-18T13:45:46.135Z,9.50
2017-10-18T13:48:13.015Z,9.13
2017-10-18T13:50:39.896Z,9.63
2017-10-18T13:53:06.777Z,9.43
2017-10-18T13:55:34.371Z,9.80
2017-10-18T13:58:01.180Z,10.47
2017-10-18T14:00:28.064Z,10.20
2017-10-18T14:02:54.897Z,9.97
2017-10-18T14:05:21.740Z,14.40
2017-10-18T14:07:48.621Z,11.47
2017-10-18T14:10:15.456Z,11.17
2017-10-18T14:12:42.286Z,10.97
2017-10-18T14:15:09.850Z,9.67
2017-10-18T14:17:36.673Z,10.47
2017-10-18T14:20:03.539Z,10.43
2017-10-18T14:22:30.457Z,10.00
2017-10-18T14:24:59.107Z,9.37
2017-10-18T14:27:25.985Z,9.47
2017-10-18T14:29:52.885Z,9.53
2017-10-18T14:32:20.518Z,9.00
2017-10-18T14:34:47.435Z,8.40
2017-10-18T14:37:14.296Z,8.77
2017-10-18T14:39:41.142Z,8.60
2017-10-18T14:42:08.810Z,8.93
2017-10-18T14:44:35.758Z,8.53
2017-10-18T14:47:02.778Z,8.00
2017-10-18T14:49:29.603Z,9.03
2017-10-18T14:51:56.448Z,9.00
2017-10-18T14:54:23.358Z,9.27
2017-10-18T14:56:50.226Z,8.20
2017-10-18T14:59:17.091Z,9.30
2017-10-18T15:01:44.001Z,8.20
2017-10-18T15:04:10.813Z,9.10
2017-10-18T15:06:37.676Z,8.93
2017-10-18T15:09:05.462Z,9.20
2017-10-18T15:11:32.326Z,10.50
2017-10-18T15:13:59.169Z,9.43
2017-10-18T15:16:26.016Z,10.47
2017-10-18T15:18:53.640Z,9.73
2017-10-18T15:21:24.140Z,9.70
2017-10-18T15:23:51.274Z,9.97
2017-10-18T15:26:18.917Z,12.53
2017-10-18T15:28:45.776Z,8.73
2017-10-18T15:31:12.631Z,10.30
2017-10-18T15:33:39.437Z,9.00
2017-10-18T15:36:06.268Z,13.60
2017-10-18T15:38:33.127Z,9.50
2017-10-18T15:40:59.952Z,11.87
2017-10-18T15:43:27.571Z,11.70
2017-10-18T15:45:54.420Z,11.67
2017-10-18T15:48:21.260Z,10.63
2017-10-18T15:50:51.368Z,11.60
2017-10-18T15:53:18.311Z,14.97
2017-10-18T15:55:45.212Z,11.17
2017-10-18T15:58:13.211Z,13.10
2017-10-18T16:00:40.151Z,12.30
2017-10-18T16:03:07.763Z,12.63
2017-10-18T16:05:34.644Z,10.70
2017-10-18T16:08:04.004Z,9.70
2017-10-18T16:10:31.449Z,10.27
2017-10-18T16:13:02.069Z,10.80
2017-10-18T16:15:29.871Z,11.40
2017-10-18T16:17:58.358Z,11.77
2017-10-18T16:20:27.797Z,10.93
2017-10-18T16:22:55.378Z,11.80
2017-10-18T16:25:23.106Z,10.63
2017-10-18T16:27:49.965Z,14.60
2017-10-18T16:30:17.540Z,12.70
2017-10-18T16:32:45.452Z,12.90
2017-10-18T16:35:13.192Z,12.10
2017-10-18T16:37:40.054Z,20.63
2017-10-18T16:40:07.215Z,11.47
2017-10-18T16:42:34.366Z,14.43
2017-10-18T16:45:02.156Z,12.60
2017-10-18T16:47:29.022Z,11.67
2017-10-18T16:50:21.234Z,10.63
2017-10-18T16:52:48.884Z,13.30
2017-10-18T16:55:15.764Z,16.00
2017-10-18T16:57:42.669Z,13.93
2017-10-18T17:00:09.501Z,14.00
2017-10-18T17:02:36.459Z,12.83
2017-10-18T17:05:03.389Z,14.80
2017-10-18T17:07:30.998Z,13.53
2017-10-18T17:09:57.868Z,14.40
2017-10-18T17:12:24.725Z,12.63
2017-10-18T17:14:51.726Z,13.20
2017-10-18T17:17:18.558Z,12.60
2017-10-18T17:19:45.408Z,12.43
2017-10-18T17:22:12.274Z,11.57
2017-10-18T17:24:39.124Z,11.10
2017-10-18T17:27:05.975Z,11.50
2017-10-18T17:29:32.820Z,12.90
2017-10-18T17:32:00.393Z,12.10
2017-10-18T17:34:28.053Z,12.37
2017-10-18T17:36:55.159Z,13.43
2017-10-18T17:39:22.102Z,13.73
2017-10-18T17:41:49.003Z,15.10
2017-10-18T17:44:15.888Z,12.90
2017-10-18T17:46:42.817Z,12.63
2017-10-18T17:49:09.962Z,20.77
2017-10-18T17:51:37.580Z,18.80
2017-10-18T17:54:04.450Z,15.20
2017-10-18T17:56:31.481Z,13.00
2017-10-18T17:58:58.381Z,14.73
2017-10-18T18:01:25.320Z,15.13
2017-10-18T18:03:52.200Z,14.77
2017-10-18T18:06:19.204Z,14.03
2017-10-18T18:08:46.504Z,16.93
2017-10-18T18:11:13.488Z,15.97
2017-10-18T18:13:40.377Z,20.43
2017-10-18T18:16:07.719Z,18.70
2017-10-18T18:18:35.180Z,16.07
2017-10-18T18:21:02.157Z,19.50
2017-10-18T18:23:29.287Z,14.43
2017-10-18T18:25:59.908Z,20.07
2017-10-18T18:28:32.448Z,17.00
2017-10-18T18:31:02.193Z,17.23
2017-10-18T18:46:28.272Z,18.93
2017-10-18T18:48:58.813Z,23.23
2017-10-18T18:51:28.950Z,14.37
2017-10-18T18:53:58.402Z,16.97
2017-10-18T18:56:27.486Z,23.53
2017-10-18T18:58:57.072Z,14.83
2017-10-18T19:14:39.880Z,18.60
2017-10-18T19:17:07.347Z,16.23
2017-10-18T19:19:35.073Z,17.53
2017-10-18T19:22:02.086Z,15.13
2017-10-18T19:24:29.704Z,12.93
2017-10-18T19:26:57.142Z,15.70
2017-10-18T19:29:24.915Z,14.50
2017-10-18T19:31:52.602Z,18.90
2017-10-18T19:34:20.647Z,17.70
2017-10-18T19:36:47.720Z,17.00
2017-10-18T19:39:14.624Z,17.33
2017-10-18T19:41:41.567Z,18.47
2017-10-18T19:44:08.876Z,18.67
2017-10-18T19:46:36.971Z,15.33
2017-10-18T19:49:04.304Z,22.60
2017-10-18T19:51:32.678Z,19.90
2017-10-18T19:53:59.619Z,25.13
2017-10-18T19:56:26.785Z,19.63
2017-10-18T19:58:53.704Z,17.10
2017-10-18T20:01:21.315Z,24.50
2017-10-18T20:03:51.031Z,20.40
2017-10-18T20:06:19.608Z,18.40
2017-10-18T20:08:47.295Z,14.93
2017-10-18T20:11:14.200Z,16.27
2017-10-18T20:13:41.078Z,15.57
2017-10-18T20:16:08.014Z,14.87
2017-10-18T20:18:35.006Z,13.93
2017-10-18T20:21:02.328Z,15.10
2017-10-18T20:23:29.914Z,13.80
2017-10-18T20:25:57.513Z,17.00
2017-10-18T20:28:24.445Z,14.27
2017-10-18T20:30:51.308Z,14.20
2017-10-18T20:33:18.149Z,18.30
2017-10-18T20:35:45.066Z,14.17
2017-10-18T20:38:11.975Z,14.90
2017-10-18T20:40:38.831Z,16.10
2017-10-18T20:43:05.672Z,16.10
2017-10-18T20:45:32.514Z,15.40
2017-10-18T20:47:59.428Z,19.10
2017-10-18T20:50:26.362Z,14.53
2017-10-18T20:52:54.161Z,14.60
2017-10-18T20:55:20.977Z,16.37
2017-10-18T20:57:47.813Z,16.87
2017-10-18T21:00:14.665Z,16.13
2017-10-18T21:02:41.507Z,14.30
2017-10-18T21:05:08.407Z,13.77
2017-10-18T21:07:36.017Z,14.43
2017-10-18T21:10:02.956Z,17.80
2017-10-18T21:12:29.855Z,14.30
2017-10-18T21:14:56.688Z,15.20
2017-10-18T21:17:23.680Z,15.33
2017-10-18T21:19:51.125Z,15.60
2017-10-18T21:22:18.590Z,16.07
2017-10-18T21:24:45.718Z,14.73
2017-10-18T21:27:14.035Z,15.53
2017-10-18T21:29:42.111Z,14.47
2017-10-18T21:32:10.252Z,14.40
2017-10-18T21:34:37.196Z,15.63
2017-10-18T21:37:04.070Z,16.37
2017-10-18T21:39:31.652Z,16.53
2017-10-18T21:41:58.844Z,14.60
2017-10-18T21:44:25.803Z,15.23
2017-10-18T21:46:52.707Z,15.97
2017-10-18T21:49:19.615Z,14.50
2017-10-18T21:51:46.473Z,14.87
2017-10-18T21:54:13.275Z,14.33
2017-10-18T21:56:40.127Z,14.37
2017-10-18T21:59:06.961Z,15.20
2017-10-18T22:01:33.814Z,14.00
2017-10-18T22:04:00.642Z,12.77
2017-10-18T22:06:28.231Z,19.73
2017-10-18T22:08:56.283Z,14.93
2017-10-18T22:11:23.426Z,13.30
2017-10-18T22:13:50.720Z,13.87
2017-10-18T22:16:17.558Z,14.73
2017-10-18T22:18:44.415Z,12.80
2017-10-18T22:21:11.640Z,13.17
2017-10-18T22:23:38.512Z,13.33
2017-10-18T22:26:06.083Z,13.70
2017-10-18T22:28:32.894Z,14.33
2017-10-18T22:31:00.388Z,12.40
2017-10-18T22:33:27.418Z,14.03
2017-10-18T22:35:54.241Z,13.13
2017-10-18T22:38:21.120Z,13.00
2017-10-18T22:40:49.156Z,12.80
2017-10-18T22:43:16.460Z,13.67
2017-10-18T22:45:43.444Z,15.70
2017-10-18T22:48:10.290Z,12.77
2017-10-18T22:50:37.827Z,13.60
2017-10-18T22:53:04.738Z,12.77
2017-10-18T22:55:31.576Z,12.47
2017-10-18T22:57:58.457Z,17.00
2017-10-18T23:00:26.054Z,12.90
2017-10-18T23:02:53.472Z,13.07
2017-10-18T23:05:20.872Z,13.27
2017-10-18T23:07:47.705Z,15.50
2017-10-18T23:10:14.636Z,15.00
2017-10-18T23:12:41.505Z,12.67
2017-10-18T23:15:08.985Z,13.13
2017-10-18T23:17:35.858Z,15.97
2017-10-18T23:20:03.121Z,13.97
2017-10-18T23:22:29.939Z,13.93
2017-10-18T23:24:57.583Z,16.10
2017-10-18T23:27:24.474Z,14.60
2017-10-18T23:29:51.830Z,15.00
2017-10-18T23:32:19.006Z,14.33
2017-10-18T23:34:45.839Z,15.00
2017-10-18T23:37:12.691Z,15.27
2017-10-18T23:39:39.502Z,14.63
2017-10-18T23:42:06.319Z,16.80
2017-10-18T23:44:33.178Z,14.27
2017-10-18T23:46:59.991Z,15.60
2017-10-18T23:49:26.833Z,14.70
2017-10-18T23:51:53.658Z,15.17
2017-10-18T23:54:20.635Z,13.13
2017-10-18T23:56:47.530Z,13.63
2017-10-18T23:59:14.957Z,14.90
